Time;durP1;ratioP1;P1;durP2;ratioP2;P2;SDS_P1;SDS_P2;PMS_P1;PMS_P2;Temp;Humidity;BMP_temperature;BMP_pressure;BME280_temperature;BME280_humidity;BME280_pressure;Samples;Min_cycle;Max_cycle;Signal;HPM_P1;HPM_P2
2022/12/23 00:00:58;;;;;;;28.90;17.25;;;;;;;5.80;100.00;97982.70;1761485;81;20995;-39
2022/12/23 00:03:26;;;;;;;28.40;16.55;;;;;;;5.77;100.00;97982.42;1760779;81;21582;-38
2022/12/23 00:05:52;;;;;;;30.00;17.65;;;;;;;5.75;100.00;97982.50;1761410;81;21031;-37
2022/12/23 00:08:18;;;;;;;28.98;17.65;;;;;;;5.79;100.00;97983.64;1761478;81;20967;-40
2022/12/23 00:10:44;;;;;;;28.12;17.17;;;;;;;5.81;100.00;97985.70;1761702;81;21027;-37
2022/12/23 00:16:04;;;;;;;29.67;15.80;;;;;;;5.86;100.00;97987.59;1761486;81;21011;-37
2022/12/23 00:18:31;;;;;;;24.20;15.32;;;;;;;5.88;100.00;97988.34;1761445;80;21610;-37
2022/12/23 00:21:06;;;;;;;23.35;14.93;;;;;;;5.88;100.00;97987.03;1761531;81;20991;-38
2022/12/23 00:23:34;;;;;;;23.02;13.93;;;;;;;5.88;100.00;97987.86;1761555;81;20967;-37
2022/12/23 00:26:00;;;;;;;21.95;14.53;;;;;;;5.92;100.00;97992.44;1761468;81;21414;-45
2022/12/23 00:28:28;;;;;;;21.70;12.80;;;;;;;5.95;100.00;97990.97;1761463;81;20995;-38
2022/12/23 00:31:01;;;;;;;21.70;12.85;;;;;;;5.98;100.00;97988.20;1761447;81;21042;-39
2022/12/23 00:33:31;;;;;;;20.85;12.82;;;;;;;5.99;100.00;97997.72;1761450;81;21007;-38
2022/12/23 00:35:57;;;;;;;19.23;11.95;;;;;;;6.03;100.00;97997.91;1761461;81;20990;-38
2022/12/23 00:43:59;;;;;;;20.08;11.85;;;;;;;6.10;100.00;98007.07;1748116;82;20999;-39
2022/12/23 00:46:25;;;;;;;17.82;11.28;;;;;;;6.13;100.00;98002.98;1748080;82;21017;-39
2022/12/23 00:51:34;;;;;;;18.52;11.68;;;;;;;6.11;100.00;97998.77;1748236;82;20971;-39
2022/12/23 00:54:01;;;;;;;16.20;10.75;;;;;;;6.13;100.00;98004.30;1748048;81;20976;-40
2022/12/23 00:56:27;;;;;;;12.90;10.23;;;;;;;6.13;100.00;97997.77;1748549;82;21019;-40
2022/12/23 00:58:53;;;;;;;14.93;10.78;;;;;;;6.17;100.00;98011.92;1748130;81;20999;-38
2022/12/23 01:06:46;;;;;;;15.15;11.12;;;;;;;6.22;100.00;98012.50;1748128;81;21078;-39
2022/12/23 01:09:12;;;;;;;15.43;11.08;;;;;;;6.14;100.00;98004.66;1748061;81;20980;-38
2022/12/23 01:11:38;;;;;;;15.75;10.78;;;;;;;6.15;100.00;98002.43;1748140;81;21000;-40
2022/12/23 01:14:04;;;;;;;16.02;10.98;;;;;;;6.20;100.00;98000.02;1748070;82;20986;-38
2022/12/23 01:16:31;;;;;;;19.35;11.20;;;;;;;6.22;100.00;98003.37;1748096;81;20980;-40
2022/12/23 01:18:58;;;;;;;16.45;11.10;;;;;;;6.26;100.00;98010.95;1748140;81;21497;-38
2022/12/23 01:21:23;;;;;;;14.07;11.08;;;;;;;6.29;100.00;98006.86;1748166;81;21536;-37
2022/12/23 01:23:49;;;;;;;18.90;11.10;;;;;;;6.26;100.00;98006.20;1748085;81;20968;-37
2022/12/23 01:26:15;;;;;;;15.40;11.48;;;;;;;6.30;100.00;98005.08;1748137;81;20988;-37
2022/12/23 01:28:40;;;;;;;18.48;11.83;;;;;;;6.31;100.00;98011.52;1748075;81;21561;-38
2022/12/23 01:31:09;;;;;;;15.43;11.40;;;;;;;6.30;100.00;98002.47;1748165;81;21011;-38
2022/12/23 01:33:35;;;;;;;17.20;11.70;;;;;;;6.28;100.00;97997.81;1748045;81;20984;-45
2022/12/23 01:36:05;;;;;;;15.60;11.20;;;;;;;6.33;100.00;98006.19;1748111;82;21030;-37
2022/12/23 01:38:32;;;;;;;18.27;11.80;;;;;;;6.30;100.00;98008.52;1753391;80;21055;-38
2022/12/23 01:40:58;;;;;;;18.97;12.97;;;;;;;6.36;100.00;98015.62;1761661;80;21010;-35
2022/12/23 01:43:43;;;;;;;15.50;11.10;;;;;;;6.37;100.00;98022.07;1761413;81;21039;-36
2022/12/23 01:46:09;;;;;;;15.08;11.28;;;;;;;6.37;100.00;98019.46;1761447;81;21033;-38
2022/12/23 01:48:35;;;;;;;19.35;11.03;;;;;;;6.33;100.00;98020.11;1761387;81;21026;-36
2022/12/23 01:51:07;;;;;;;15.88;11.88;;;;;;;6.35;100.00;98031.77;1761448;81;21465;-40
2022/12/23 01:53:49;;;;;;;15.55;11.63;;;;;;;6.34;100.00;98023.55;1760631;81;20976;-37
2022/12/23 01:56:26;;;;;;;15.32;11.43;;;;;;;6.36;100.00;98019.55;1761347;81;21019;-38
2022/12/23 01:58:57;;;;;;;15.83;11.30;;;;;;;6.40;100.00;98023.17;1761576;81;21031;-38
2022/12/23 02:04:12;;;;;;;17.67;11.25;;;;;;;6.37;100.00;98015.98;1761433;81;20971;-37
2022/12/23 02:09:34;;;;;;;25.02;11.22;;;;;;;6.36;100.00;98032.13;1761487;80;20968;-36
2022/12/23 02:12:30;;;;;;;17.98;11.45;;;;;;;6.38;100.00;98027.66;1761342;81;21452;-36
2022/12/23 02:18:27;;;;;;;17.52;11.83;;;;;;;6.40;100.00;98034.09;1761517;81;21436;-36
2022/12/23 02:21:37;;;;;;;14.90;11.88;;;;;;;6.39;100.00;98040.27;1760952;81;20991;-36
2022/12/23 02:24:21;;;;;;;14.95;11.70;;;;;;;6.42;100.00;98034.40;1761473;80;21026;-36
2022/12/23 02:27:04;;;;;;;17.30;12.25;;;;;;;6.38;100.00;98047.70;1760157;81;20956;-37
2022/12/23 02:29:56;;;;;;;16.52;12.55;;;;;;;6.34;100.00;98054.88;1761341;81;20990;-39
2022/12/23 02:32:30;;;;;;;16.80;12.37;;;;;;;6.34;100.00;98055.71;1760658;81;21062;-36
2022/12/23 02:35:17;;;;;;;16.90;12.78;;;;;;;6.35;100.00;98057.87;1760972;81;20964;-37
2022/12/23 02:37:51;;;;;;;19.05;13.00;;;;;;;6.38;100.00;98058.98;1761518;81;21476;-38
2022/12/23 02:43:49;;;;;;;15.80;12.55;;;;;;;6.33;100.00;98066.23;1638397;80;21139;-37
2022/12/23 02:46:27;;;;;;;18.30;12.85;;;;;;;6.30;100.00;98055.99;1638989;87;21039;-36
2022/12/23 02:49:16;;;;;;;16.05;12.15;;;;;;;6.32;100.00;98061.48;1637750;87;21063;-37
2022/12/23 02:51:49;;;;;;;18.45;12.65;;;;;;;6.31;100.00;98053.73;1638705;87;21651;-38
2022/12/23 02:54:21;;;;;;;16.35;12.95;;;;;;;6.25;100.00;98043.66;1638447;87;21031;-37
2022/12/23 02:56:49;;;;;;;16.35;12.30;;;;;;;6.31;100.00;98045.91;1637751;87;21020;-39
2022/12/23 02:59:23;;;;;;;20.80;13.50;;;;;;;6.28;100.00;98040.88;1618170;87;21496;-38
2022/12/23 03:01:51;;;;;;;17.73;13.58;;;;;;;6.28;100.00;98036.97;1638775;86;20980;-39
2022/12/23 03:04:17;;;;;;;17.98;13.00;;;;;;;6.29;100.00;98029.05;1638620;87;21015;-39
2022/12/23 03:06:47;;;;;;;15.25;12.30;;;;;;;6.27;100.00;98033.97;1638734;87;21532;-37
2022/12/23 03:09:42;;;;;;;17.37;13.65;;;;;;;6.23;100.00;98030.70;1638703;86;21063;-37
2022/12/23 03:12:38;;;;;;;17.00;13.53;;;;;;;6.27;100.00;98037.88;1638617;87;21000;-37
2022/12/23 03:15:37;;;;;;;17.30;13.48;;;;;;;6.24;100.00;98041.97;1638943;87;21052;-37
2022/12/23 03:18:31;;;;;;;20.20;13.22;;;;;;;6.24;100.00;98038.05;1638617;87;21041;-38
2022/12/23 03:21:09;;;;;;;18.02;13.45;;;;;;;6.28;100.00;98035.66;1632375;87;21079;-37
2022/12/23 03:23:38;;;;;;;;;;;;;;;6.30;100.00;98046.86;1634102;87;21504;-39
2022/12/23 03:26:48;;;;;;;18.10;13.85;;;;;;;6.28;100.00;98051.33;1638918;87;20132;-39
2022/12/23 03:29:31;;;;;;;21.23;15.18;;;;;;;6.22;100.00;98047.30;1638650;87;21063;-37
2022/12/23 03:31:59;;;;;;;18.12;14.45;;;;;;;6.26;100.00;98051.89;1611947;87;21056;-36
2022/12/23 03:34:30;;;;;;;20.35;14.70;;;;;;;6.24;100.00;98051.97;1638223;87;21183;-40
2022/12/23 03:37:00;;;;;;;21.07;15.03;;;;;;;6.27;100.00;98052.24;1638745;87;21059;-40
2022/12/23 03:39:31;;;;;;;18.52;14.23;;;;;;;6.26;100.00;98047.97;1638783;87;21027;-39
2022/12/23 03:42:14;;;;;;;18.25;14.03;;;;;;;6.26;100.00;98052.72;1636701;87;21048;-37
2022/12/23 03:44:44;;;;;;;17.87;13.25;;;;;;;6.25;100.00;98046.27;1602922;88;21596;-38
2022/12/23 03:47:21;;;;;;;18.35;13.05;;;;;;;6.27;99.92;98048.33;1632711;88;21024;-36
2022/12/23 03:49:52;;;;;;;19.90;13.35;;;;;;;6.26;99.82;98051.89;1632986;87;21060;-39
2022/12/23 03:52:29;;;;;;;19.62;13.03;;;;;;;6.28;99.74;98046.11;1632776;88;21505;-39
2022/12/23 03:55:00;;;;;;;16.12;12.20;;;;;;;6.25;99.26;98050.19;1626001;87;21634;-39
2022/12/23 03:57:46;;;;;;;15.28;12.47;;;;;;;6.26;99.31;98055.33;1622767;88;21024;-38
2022/12/23 04:00:12;;;;;;;17.23;12.55;;;;;;;6.25;98.94;98054.94;1622756;88;21021;-39
2022/12/23 04:02:53;;;;;;;16.48;12.20;;;;;;;6.28;99.02;98057.86;1622779;88;21032;-39
2022/12/23 04:05:38;;;;;;;15.60;12.47;;;;;;;6.27;98.53;98056.16;1622685;88;20981;-37
2022/12/23 04:08:12;;;;;;;16.70;13.08;;;;;;;6.25;98.35;98055.41;1624520;88;21000;-39
2022/12/23 04:10:38;;;;;;;15.80;12.07;;;;;;;6.23;98.28;98038.52;1622811;88;21022;-37
2022/12/23 04:13:04;;;;;;;14.68;11.75;;;;;;;6.22;98.15;98039.91;1622753;87;21550;-40
2022/12/23 04:15:31;;;;;;;15.75;12.10;;;;;;;6.27;98.24;98045.72;1622710;88;20997;-37
2022/12/23 04:17:57;;;;;;;19.23;12.35;;;;;;;6.28;98.21;98047.41;1622772;88;21028;-37
2022/12/23 04:20:24;;;;;;;15.55;11.80;;;;;;;6.30;98.09;98042.94;1622788;87;21017;-38
2022/12/23 04:22:49;;;;;;;18.00;12.80;;;;;;;6.29;97.84;98050.38;1622988;88;21000;-40
2022/12/23 04:25:17;;;;;;;18.32;12.40;;;;;;;6.23;97.35;98052.88;1622820;87;21020;-37
2022/12/23 04:27:43;;;;;;;15.90;12.18;;;;;;;6.25;97.32;98057.55;1622919;88;21013;-37
2022/12/23 04:30:10;;;;;;;16.17;12.33;;;;;;;6.23;97.43;98059.41;1622730;87;21060;-37
2022/12/23 04:32:37;;;;;;;19.15;12.70;;;;;;;6.19;97.54;98058.38;1622803;87;21023;-36
2022/12/23 04:35:04;;;;;;;23.35;12.93;;;;;;;6.20;97.47;98057.44;1622862;88;21073;-36
2022/12/23 04:37:30;;;;;;;16.48;13.93;;;;;;;6.15;97.60;98053.80;1622996;88;21077;-37
2022/12/23 04:39:56;;;;;;;17.92;13.25;;;;;;;6.16;97.83;98051.55;1622897;88;20993;-37
2022/12/23 04:42:22;;;;;;;17.23;13.55;;;;;;;6.14;97.74;98049.02;1624196;87;21048;-36
2022/12/23 04:44:48;;;;;;;20.65;13.55;;;;;;;6.14;97.84;98049.50;1626493;88;21567;-37
2022/12/23 04:47:14;;;;;;;19.25;14.63;;;;;;;6.17;98.10;98053.69;1626584;88;21049;-41
2022/12/23 04:49:39;;;;;;;23.12;14.53;;;;;;;6.21;97.94;98051.30;1626698;88;21547;-37
2022/12/23 04:52:06;;;;;;;22.15;15.23;;;;;;;6.23;97.94;98054.66;1626547;88;21032;-39
2022/12/23 04:54:31;;;;;;;23.42;15.23;;;;;;;6.24;97.73;98049.80;1626542;87;21031;-35
2022/12/23 04:56:58;;;;;;;21.80;15.48;;;;;;;6.28;97.75;98050.02;1626538;88;21036;-37
2022/12/23 04:59:25;;;;;;;20.27;15.47;;;;;;;6.24;97.71;98051.10;1626676;88;21024;-36
2022/12/23 05:01:50;;;;;;;23.40;15.25;;;;;;;6.24;97.70;98051.10;1626589;87;21333;-38
2022/12/23 05:04:16;;;;;;;23.05;16.65;;;;;;;6.25;97.64;98046.27;1626559;87;21032;-39
2022/12/23 05:06:42;;;;;;;25.90;17.35;;;;;;;6.12;98.16;98037.84;1626775;88;21024;-36
2022/12/23 05:09:08;;;;;;;26.05;17.40;;;;;;;6.12;98.18;98050.05;1626573;87;21028;-39
2022/12/23 05:11:34;;;;;;;31.40;18.32;;;;;;;6.05;98.00;98057.37;1626387;88;21052;-36
2022/12/23 05:14:00;;;;;;;25.08;17.65;;;;;;;6.05;98.38;98051.33;1626567;88;21529;-39
2022/12/23 05:16:26;;;;;;;24.07;17.40;;;;;;;5.95;99.06;98057.07;1626733;88;21446;-37
2022/12/23 05:18:52;;;;;;;26.57;17.20;;;;;;;5.90;99.22;98049.92;1626551;88;21553;-39
2022/12/23 05:21:17;;;;;;;24.20;16.85;;;;;;;5.93;99.04;98054.12;1626631;88;21060;-37
2022/12/23 05:23:43;;;;;;;27.75;16.65;;;;;;;5.99;98.90;98057.73;1626402;88;21023;-38
2022/12/23 05:26:10;;;;;;;29.77;16.62;;;;;;;5.96;98.78;98063.13;1626454;88;20996;-39
2022/12/23 05:28:36;;;;;;;25.65;17.42;;;;;;;5.96;98.85;98067.03;1626336;87;21097;-37
2022/12/23 05:31:06;;;;;;;22.82;17.30;;;;;;;5.97;98.87;98062.20;1626483;88;21020;-37
2022/12/23 05:33:33;;;;;;;26.10;16.67;;;;;;;5.97;98.71;98058.30;1626735;87;21020;-38
2022/12/23 05:35:59;;;;;;;22.02;15.05;;;;;;;5.92;98.82;98055.89;1626649;88;21040;-36
2022/12/23 05:38:26;;;;;;;26.77;17.00;;;;;;;5.94;98.81;98055.34;1626639;88;21064;-38
2022/12/23 05:40:52;;;;;;;29.67;18.13;;;;;;;5.96;98.80;98054.82;1626826;87;21514;-38
2022/12/23 05:43:19;;;;;;;28.15;17.40;;;;;;;5.99;98.78;98054.30;1627351;87;21517;-40
2022/12/23 05:45:45;;;;;;;28.00;18.07;;;;;;;6.00;98.56;98057.27;1626569;88;21584;-39
2022/12/23 05:48:11;;;;;;;30.03;18.57;;;;;;;5.96;98.58;98053.52;1626742;88;21496;-39
2022/12/23 05:50:38;;;;;;;29.30;18.35;;;;;;;5.95;98.65;98060.12;1626719;88;21009;-37
2022/12/23 05:53:05;;;;;;;25.93;17.87;;;;;;;5.93;98.34;98052.81;1626817;88;21524;-39
2022/12/23 05:55:31;;;;;;;26.30;18.20;;;;;;;5.93;98.34;98052.81;1626473;88;21582;-36
2022/12/23 05:57:58;;;;;;;28.20;18.65;;;;;;;5.90;98.90;98064.75;1626503;88;21546;-39
2022/12/23 06:00:24;;;;;;;29.75;17.57;;;;;;;5.94;98.79;98074.08;1626762;88;21020;-38
2022/12/23 06:02:50;;;;;;;28.55;17.52;;;;;;;5.95;98.98;98075.33;1626590;88;21020;-37
2022/12/23 06:05:15;;;;;;;27.70;18.02;;;;;;;6.00;98.97;98066.40;1626457;88;21020;-38
2022/12/23 06:07:41;;;;;;;23.83;16.40;;;;;;;5.99;98.72;98067.34;1625929;88;21062;-39
2022/12/23 06:10:10;;;;;;;26.80;16.62;;;;;;;5.91;99.10;98066.41;1626273;88;21205;-37
2022/12/23 06:12:37;;;;;;;31.77;17.80;;;;;;;5.92;99.09;98067.64;1626396;88;21020;-36
2022/12/23 06:15:04;;;;;;;28.12;17.92;;;;;;;5.92;99.33;98061.59;1626560;88;21073;-37
2022/12/23 06:17:30;;;;;;;28.83;17.85;;;;;;;5.93;99.48;98071.08;1626630;88;21012;-36
2022/12/23 06:19:56;;;;;;;30.17;19.23;;;;;;;5.98;99.32;98070.87;1626514;88;21550;-37
2022/12/23 06:22:22;;;;;;;29.30;18.75;;;;;;;5.93;99.49;98073.69;1626490;88;21557;-37
2022/12/23 06:24:49;;;;;;;31.97;20.52;;;;;;;5.96;99.51;98073.56;1626531;88;21071;-36
2022/12/23 06:27:15;;;;;;;34.97;19.80;;;;;;;5.96;99.47;98073.56;1626826;87;21481;-37
2022/12/23 06:29:41;;;;;;;34.92;20.77;;;;;;;5.93;99.58;98069.33;1626555;88;21071;-37
2022/12/23 06:32:07;;;;;;;36.48;20.57;;;;;;;5.92;99.18;98072.86;1626916;87;21497;-37
2022/12/23 06:34:33;;;;;;;29.52;19.10;;;;;;;5.93;99.89;98067.16;1626885;87;21032;-39
2022/12/23 06:36:59;;;;;;;40.17;20.82;;;;;;;5.94;99.68;98073.61;1626626;88;20997;-38
2022/12/23 06:39:25;;;;;;;35.38;20.10;;;;;;;5.91;100.00;98075.55;1626567;88;21027;-39
2022/12/23 06:41:51;;;;;;;30.23;19.43;;;;;;;5.94;100.00;98077.99;1626714;88;21072;-37
2022/12/23 06:44:17;;;;;;;30.80;18.48;;;;;;;5.97;99.77;98080.47;1626499;87;21147;-38
2022/12/23 06:46:43;;;;;;;36.17;19.35;;;;;;;5.96;99.67;98079.61;1626569;88;21012;-37
2022/12/23 06:49:09;;;;;;;32.50;17.95;;;;;;;5.99;99.58;98077.78;1626500;88;21510;-39
2022/12/23 06:51:35;;;;;;;30.05;17.92;;;;;;;5.98;99.57;98074.31;1626489;88;21099;-36
2022/12/23 06:54:01;;;;;;;28.85;17.90;;;;;;;5.99;99.69;98068.65;1626726;87;21064;-38
2022/12/23 06:56:27;;;;;;;28.30;18.02;;;;;;;5.96;99.74;98070.95;1626454;88;21068;-36
2022/12/23 06:58:53;;;;;;;27.02;16.45;;;;;;;5.97;99.47;98070.03;1626469;88;20988;-38
2022/12/23 07:01:19;;;;;;;24.77;15.55;;;;;;;5.98;99.41;98065.17;1626463;88;21052;-38
2022/12/23 07:03:45;;;;;;;25.17;15.72;;;;;;;5.86;99.86;98059.33;1626788;87;20992;-37
2022/12/23 07:06:11;;;;;;;27.22;16.93;;;;;;;5.90;99.89;98066.88;1626433;88;21056;-37
2022/12/23 07:08:37;;;;;;;25.17;16.45;;;;;;;5.91;99.54;98072.94;1626428;88;21040;-37
2022/12/23 07:11:04;;;;;;;29.23;16.82;;;;;;;5.88;99.73;98064.83;1626591;88;21000;-38
2022/12/23 07:13:32;;;;;;;24.87;15.93;;;;;;;5.86;99.99;98065.86;1626594;88;21036;-38
2022/12/23 07:15:58;;;;;;;25.95;16.23;;;;;;;5.88;99.82;98064.00;1626448;88;21027;-36
2022/12/23 07:18:25;;;;;;;26.57;16.45;;;;;;;5.83;100.00;98056.41;1626724;88;21006;-37
2022/12/23 07:20:51;;;;;;;27.50;16.90;;;;;;;5.87;99.92;98057.08;1626725;88;21023;-38
2022/12/23 07:23:17;;;;;;;25.92;17.65;;;;;;;5.89;99.71;98055.22;1626744;88;21020;-38
2022/12/23 07:25:43;;;;;;;26.12;16.48;;;;;;;5.91;99.46;98058.59;1626450;87;21031;-39
2022/12/23 07:28:09;;;;;;;25.08;16.07;;;;;;;5.90;99.40;98055.14;1626412;88;21027;-40
2022/12/23 07:30:35;;;;;;;24.82;16.05;;;;;;;5.90;99.15;98059.06;1626357;88;21035;-38
2022/12/23 07:33:01;;;;;;;31.07;16.73;;;;;;;5.94;98.78;98063.64;1626518;87;21060;-37
2022/12/23 07:35:27;;;;;;;28.35;17.02;;;;;;;5.95;98.53;98060.12;1626285;88;21061;-39
2022/12/23 07:37:55;;;;;;;24.00;16.40;;;;;;;5.93;98.39;98059.34;1626456;88;21032;-37
2022/12/23 07:40:22;;;;;;;23.07;15.80;;;;;;;5.99;98.22;98056.91;1626641;88;21019;-38
2022/12/23 07:42:50;;;;;;;29.85;16.62;;;;;;;5.98;97.98;98052.59;1628518;87;21051;-39
2022/12/23 07:45:16;;;;;;;32.13;18.82;;;;;;;6.00;97.82;98053.35;1613543;88;21102;-39
2022/12/23 07:47:42;;;;;;;27.82;17.55;;;;;;;5.99;97.65;98052.98;1633922;87;21096;-39
2022/12/23 07:50:08;;;;;;;25.40;16.32;;;;;;;6.03;97.61;98050.58;1633873;87;21016;-37
2022/12/23 07:52:34;;;;;;;29.48;17.57;;;;;;;6.05;97.56;98043.50;1633826;87;21029;-40
2022/12/23 07:55:00;;;;;;;31.05;18.32;;;;;;;6.07;97.33;98047.69;1633796;87;21071;-39
2022/12/23 07:57:28;;;;;;;27.48;17.02;;;;;;;6.08;97.23;98048.08;1634038;87;21020;-38
2022/12/23 07:59:53;;;;;;;;;;;;;;;6.12;97.25;98052.66;1636370;87;21063;-36
2022/12/23 08:02:22;;;;;;;28.47;17.30;;;;;;;6.12;97.15;98053.49;1633779;87;20140;-37
2022/12/23 08:04:47;;;;;;;27.87;17.30;;;;;;;6.14;96.77;98052.94;1633615;87;21032;-38
2022/12/23 08:07:12;;;;;;;30.30;18.12;;;;;;;6.18;96.78;98054.91;1634154;87;21064;-40
2022/12/23 08:09:38;;;;;;;30.62;18.77;;;;;;;6.22;96.61;98043.39;1633791;88;21472;-38
2022/12/23 08:12:05;;;;;;;27.45;18.48;;;;;;;6.22;96.52;98046.00;1633929;88;21064;-38
2022/12/23 08:14:30;;;;;;;30.37;18.05;;;;;;;6.22;96.30;98046.44;1634230;86;21032;-39
2022/12/23 08:16:56;;;;;;;36.73;19.27;;;;;;;6.18;96.03;98043.64;1633974;88;21515;-37
2022/12/23 08:19:22;;;;;;;37.48;20.08;;;;;;;6.12;96.02;98037.84;1633943;87;21011;-37
2022/12/23 08:21:48;;;;;;;28.38;18.95;;;;;;;6.12;96.34;98031.31;1633966;87;21027;-38
2022/12/23 08:24:14;;;;;;;26.17;16.37;;;;;;;6.15;96.22;98035.06;1634058;88;20992;-38
2022/12/23 08:26:40;;;;;;;38.63;19.52;;;;;;;6.22;96.19;98026.42;1634077;87;21483;-37
2022/12/23 08:29:05;;;;;;;27.48;17.60;;;;;;;6.23;96.15;98023.34;1634226;87;21056;-39
2022/12/23 08:31:31;;;;;;;32.95;17.95;;;;;;;6.26;96.14;98019.25;1634354;87;21512;-41
2022/12/23 08:33:59;;;;;;;28.55;17.00;;;;;;;6.23;95.82;98018.95;1633886;87;21032;-38
2022/12/23 08:36:29;;;;;;;29.12;16.32;;;;;;;6.26;95.68;98009.64;1633943;87;21020;-39
2022/12/23 08:38:58;;;;;;;27.30;15.20;;;;;;;6.28;95.53;98018.69;1634009;87;21005;-39
2022/12/23 08:41:29;;;;;;;30.85;15.60;;;;;;;6.28;95.38;98022.61;1633849;88;21048;-36
2022/12/23 08:43:56;;;;;;;35.35;17.45;;;;;;;6.30;95.39;98009.83;1629933;87;21045;-39
2022/12/23 08:46:22;;;;;;;37.30;16.77;;;;;;;6.25;95.10;98014.95;1626751;88;21028;-38
2022/12/23 08:48:48;;;;;;;40.23;16.65;;;;;;;6.26;95.21;98004.89;1626534;88;21051;-38
2022/12/23 08:51:15;;;;;;;38.95;16.55;;;;;;;6.26;95.28;97995.28;1626551;87;21045;-37
2022/12/23 08:53:42;;;;;;;33.58;16.65;;;;;;;6.25;95.25;97992.76;1626639;88;21524;-40
2022/12/23 08:56:12;;;;;;;28.32;16.02;;;;;;;6.23;95.48;97994.63;1626882;87;21027;-37
2022/12/23 08:58:44;;;;;;;31.77;15.90;;;;;;;6.12;95.46;97992.63;1626033;88;21540;-41
2022/12/23 09:01:13;;;;;;;29.72;16.27;;;;;;;6.21;95.50;97986.04;1626235;87;21023;-36
2022/12/23 09:03:40;;;;;;;32.60;16.62;;;;;;;6.23;95.79;97982.88;1626510;88;21032;-37
2022/12/23 09:06:09;;;;;;;29.42;16.40;;;;;;;6.27;95.71;97983.06;1626758;88;21020;-37
2022/12/23 09:08:36;;;;;;;26.45;14.65;;;;;;;6.27;95.41;97978.67;1626575;88;21028;-37
2022/12/23 09:11:02;;;;;;;28.30;16.35;;;;;;;6.17;95.46;97984.08;1626686;88;21035;-37
2022/12/23 09:13:28;;;;;;;43.50;17.92;;;;;;;6.29;95.47;97983.80;1626617;88;21036;-37
2022/12/23 09:15:54;;;;;;;28.02;15.90;;;;;;;6.28;95.70;97971.70;1626549;88;21024;-37
2022/12/23 09:18:20;;;;;;;38.30;17.48;;;;;;;6.27;95.63;97968.70;1626578;88;21036;-40
2022/12/23 09:20:46;;;;;;;33.75;17.77;;;;;;;6.24;95.54;97965.81;1626406;87;21036;-37
2022/12/23 09:23:13;;;;;;;30.92;16.80;;;;;;;6.31;95.60;97960.61;1626794;88;21012;-37
2022/12/23 09:25:38;;;;;;;30.97;17.12;;;;;;;6.35;95.48;97965.19;1626892;87;21068;-39
2022/12/23 09:28:06;;;;;;;37.58;16.55;;;;;;;6.35;95.50;97954.74;1626334;88;21048;-38
2022/12/23 09:30:32;;;;;;;31.12;16.12;;;;;;;6.35;95.47;97956.05;1626924;88;21032;-36
2022/12/23 09:32:58;;;;;;;33.88;17.35;;;;;;;6.37;95.61;97951.57;1626494;87;21545;-37
2022/12/23 09:35:24;;;;;;;43.65;18.20;;;;;;;6.39;95.52;97952.31;1626488;88;21060;-39
2022/12/23 09:37:50;;;;;;;36.48;17.30;;;;;;;6.43;95.53;97951.67;1626624;88;21478;-37
2022/12/23 09:40:20;;;;;;;31.70;16.90;;;;;;;6.37;95.27;97949.41;1626496;88;21028;-36
2022/12/23 09:43:12;;;;;;;36.75;17.98;;;;;;;6.36;95.57;97945.96;1626398;87;21028;-38
2022/12/23 09:45:49;;;;;;;27.60;16.65;;;;;;;6.36;95.71;97945.13;1624011;88;21013;-38
2022/12/23 09:48:20;;;;;;;33.65;17.25;;;;;;;6.43;95.93;97949.89;1626714;88;21091;-36
2022/12/23 09:50:47;;;;;;;30.35;16.57;;;;;;;6.38;95.60;97945.40;1626462;88;21064;-40
2022/12/23 09:53:21;;;;;;;28.38;16.05;;;;;;;6.41;95.65;97939.17;1626528;88;21019;-36
2022/12/23 09:56:19;;;;;;;24.15;15.23;;;;;;;6.40;95.82;97943.53;1625988;87;21502;-38
2022/12/23 09:58:59;;;;;;;25.62;14.68;;;;;;;6.43;95.87;97941.22;1619435;88;21039;-39
2022/12/23 10:01:36;;;;;;;23.73;14.63;;;;;;;6.48;95.77;97925.65;1626066;87;21482;-40
2022/12/23 10:04:23;;;;;;;23.50;14.40;;;;;;;6.47;95.50;97926.56;1625833;88;20984;-39
2022/12/23 10:07:25;;;;;;;26.03;14.97;;;;;;;6.52;95.75;97927.61;1622834;88;21056;-39
2022/12/23 10:09:54;;;;;;;20.80;14.20;;;;;;;6.52;95.75;97927.61;1625353;88;21418;-36
2022/12/23 10:12:25;;;;;;;26.33;16.85;;;;;;;6.58;95.75;97923.30;1626472;88;21011;-35
2022/12/23 10:14:55;;;;;;;22.52;14.63;;;;;;;6.61;95.65;97924.91;1625937;88;21036;-36
2022/12/23 10:17:29;;;;;;;20.82;13.93;;;;;;;6.65;95.50;97929.00;1626540;88;21521;-37
2022/12/23 10:19:59;;;;;;;21.68;14.00;;;;;;;6.72;95.47;97932.45;1626619;88;21056;-37
2022/12/23 10:22:41;;;;;;;23.85;14.68;;;;;;;6.79;95.39;97926.39;1626482;88;21024;-38
2022/12/23 10:25:31;;;;;;;24.43;14.95;;;;;;;6.82;95.32;97927.52;1626427;88;21509;-38
2022/12/23 10:27:56;;;;;;;26.42;15.63;;;;;;;6.85;95.40;97927.30;1626360;88;20997;-38
2022/12/23 10:30:23;;;;;;;25.65;15.72;;;;;;;6.91;95.26;97930.86;1626454;88;21028;-36
2022/12/23 10:33:15;;;;;;;27.00;15.80;;;;;;;6.94;95.08;97924.59;1626718;88;21008;-38
2022/12/23 10:35:49;;;;;;;23.80;14.83;;;;;;;6.99;95.13;97916.00;1626245;87;21019;-39
2022/12/23 10:38:26;;;;;;;21.55;14.53;;;;;;;7.06;95.05;97918.61;1626322;88;21063;-38
2022/12/23 10:41:16;;;;;;;22.87;14.65;;;;;;;7.07;94.79;97912.42;1623084;87;21060;-38
2022/12/23 10:44:07;;;;;;;25.12;15.55;;;;;;;7.13;94.78;97911.22;1624976;86;21048;-39
2022/12/23 10:46:55;;;;;;;23.62;15.38;;;;;;;7.05;94.84;97914.77;1625238;88;21505;-38
2022/12/23 10:49:49;;;;;;;24.18;16.40;;;;;;;7.07;94.79;97912.90;1622844;86;21044;-36
2022/12/23 10:52:22;;;;;;;23.92;15.63;;;;;;;7.03;95.08;97908.81;1623198;88;21053;-37
2022/12/23 10:54:48;;;;;;;23.98;15.38;;;;;;;7.05;95.31;97905.63;1622554;88;21017;-36
2022/12/23 10:57:17;;;;;;;21.25;14.53;;;;;;;7.11;95.25;97910.01;1622805;87;21060;-39
2022/12/23 10:59:43;;;;;;;20.57;13.20;;;;;;;7.13;95.42;97906.00;1622693;87;21017;-37
2022/12/23 11:02:17;;;;;;;22.02;14.47;;;;;;;7.18;95.33;97905.20;1623068;88;21537;-38
2022/12/23 11:04:47;;;;;;;20.40;13.53;;;;;;;7.15;95.37;97906.73;1622824;88;21017;-36
2022/12/23 11:07:20;;;;;;;23.87;14.03;;;;;;;7.17;95.58;97897.02;1622677;88;21567;-39
2022/12/23 11:09:51;;;;;;;23.15;14.38;;;;;;;7.20;95.39;97899.41;1622824;88;21009;-38
2022/12/23 11:12:24;;;;;;;25.02;13.70;;;;;;;7.19;95.79;97893.83;1622895;88;21541;-36
2022/12/23 11:14:55;;;;;;;20.65;13.32;;;;;;;7.19;95.83;97897.75;1622724;88;21032;-37
2022/12/23 11:17:24;;;;;;;22.55;14.45;;;;;;;7.20;95.83;97891.56;1622788;88;21537;-43
2022/12/23 11:20:13;;;;;;;19.20;13.03;;;;;;;7.20;96.04;97894.18;1622885;88;21028;-36
2022/12/23 11:22:52;;;;;;;21.05;13.45;;;;;;;7.19;96.51;97888.59;1622777;87;21072;-37
2022/12/23 11:25:37;;;;;;;20.30;13.32;;;;;;;7.19;96.31;97889.91;1622092;87;21080;-38
2022/12/23 11:28:11;;;;;;;18.70;12.03;;;;;;;7.21;96.25;97888.50;1622407;88;21613;-38
2022/12/23 11:30:47;;;;;;;26.45;14.68;;;;;;;7.20;96.45;97887.64;1622659;88;21096;-38
2022/12/23 11:33:29;;;;;;;19.35;12.80;;;;;;;7.17;96.75;97885.25;1622734;88;21103;-38
2022/12/23 11:36:12;;;;;;;20.25;12.60;;;;;;;7.13;97.24;97886.39;1622801;88;21064;-39
2022/12/23 11:39:04;;;;;;;19.50;12.23;;;;;;;7.16;96.96;97886.65;1622846;88;21004;-36
2022/12/23 11:41:40;;;;;;;23.98;12.40;;;;;;;7.18;97.26;97892.61;1613733;87;21079;-37
2022/12/23 11:44:23;;;;;;;18.87;11.55;;;;;;;7.16;97.63;97887.48;1623442;87;21104;-40
2022/12/23 11:46:49;;;;;;;18.15;11.63;;;;;;;7.13;98.38;97882.47;1625696;87;21072;-38
2022/12/23 11:49:23;;;;;;;17.07;11.18;;;;;;;7.16;98.29;97885.34;1626381;88;21004;-37
2022/12/23 11:52:13;;;;;;;18.52;11.85;;;;;;;7.18;98.24;97890.00;1626424;88;21520;-37
2022/12/23 11:54:39;;;;;;;17.55;10.48;;;;;;;7.20;98.26;97890.26;1606921;88;21044;-39
2022/12/23 11:57:11;;;;;;;17.10;10.20;;;;;;;7.22;98.05;97881.87;1626469;88;21060;-39
2022/12/23 11:59:43;;;;;;;15.40;10.13;;;;;;;7.15;98.52;97872.75;1625168;88;21029;-39
2022/12/23 12:02:18;;;;;;;16.50;10.48;;;;;;;7.19;98.45;97878.14;1625438;87;21532;-40
2022/12/23 12:04:49;;;;;;;17.20;9.80;;;;;;;7.14;98.61;97874.98;1621729;88;21080;-38
2022/12/23 12:07:18;;;;;;;17.70;10.35;;;;;;;7.07;99.02;97876.30;1610623;88;21075;-38
2022/12/23 12:09:44;;;;;;;14.10;9.88;;;;;;;7.05;99.28;97884.72;1626318;88;21036;-38